sensor_id;sensor_type;location;lat;lon;timestamp;P1;durP1;ratioP1;P2;durP2;ratioP2
41309;SDS011;27057;51.438;-0.010;2023-07-31T00:01:59;28.45;;;7.80;;
41309;SDS011;27057;51.438;-0.010;2023-07-31T00:04:29;25.77;;;6.47;;
41309;SDS011;27057;51.438;-0.010;2023-07-31T00:07:05;25.70;;;5.90;;
41309;SDS011;27057;51.438;-0.010;2023-07-31T00:09:36;25.08;;;5.72;;
41309;SDS011;27057;51.438;-0.010;2023-07-31T00:12:06;18.65;;;5.07;;
41309;SDS011;27057;51.438;-0.010;2023-07-31T00:14:34;25.25;;;5.53;;
41309;SDS011;27057;51.438;-0.010;2023-07-31T00:17:02;14.30;;;4.35;;
41309;SDS011;27057;51.438;-0.010;2023-07-31T00:19:32;19.88;;;5.95;;
41309;SDS011;27057;51.438;-0.010;2023-07-31T00:22:01;15.73;;;4.55;;
41309;SDS011;27057;51.438;-0.010;2023-07-31T00:24:28;7.20;;;4.05;;
41309;SDS011;27057;51.438;-0.010;2023-07-31T00:26:56;12.60;;;3.03;;
41309;SDS011;27057;51.438;-0.010;2023-07-31T00:29:29;14.45;;;3.70;;
41309;SDS011;27057;51.438;-0.010;2023-07-31T00:31:57;9.48;;;3.35;;
41309;SDS011;27057;51.438;-0.010;2023-07-31T00:34:25;9.70;;;3.10;;
41309;SDS011;27057;51.438;-0.010;2023-07-31T00:36:55;13.77;;;2.75;;
41309;SDS011;27057;51.438;-0.010;2023-07-31T00:39:26;16.42;;;3.33;;
41309;SDS011;27057;51.438;-0.010;2023-07-31T00:41:54;19.73;;;4.68;;
41309;SDS011;27057;51.438;-0.010;2023-07-31T00:44:21;8.98;;;2.92;;
41309;SDS011;27057;51.438;-0.010;2023-07-31T00:46:53;8.50;;;1.90;;
41309;SDS011;27057;51.438;-0.010;2023-07-31T00:49:22;8.27;;;2.78;;
41309;SDS011;27057;51.438;-0.010;2023-07-31T00:51:49;10.18;;;2.97;;
41309;SDS011;27057;51.438;-0.010;2023-07-31T00:54:17;19.15;;;3.00;;
41309;SDS011;27057;51.438;-0.010;2023-07-31T00:56:45;11.82;;;3.33;;
41309;SDS011;27057;51.438;-0.010;2023-07-31T00:59:15;10.85;;;2.60;;
41309;SDS011;27057;51.438;-0.010;2023-07-31T01:01:45;4.90;;;2.55;;
41309;SDS011;27057;51.438;-0.010;2023-07-31T01:04:13;7.07;;;2.20;;
41309;SDS011;27057;51.438;-0.010;2023-07-31T01:07:01;8.52;;;2.20;;
41309;SDS011;27057;51.438;-0.010;2023-07-31T01:14:28;2.13;;;1.25;;
41309;SDS011;27057;51.438;-0.010;2023-07-31T01:16:56;7.90;;;2.05;;
41309;SDS011;27057;51.438;-0.010;2023-07-31T01:19:24;4.75;;;1.55;;
41309;SDS011;27057;51.438;-0.010;2023-07-31T01:25:21;3.80;;;1.50;;
41309;SDS011;27057;51.438;-0.010;2023-07-31T01:28:11;4.63;;;1.42;;
41309;SDS011;27057;51.438;-0.010;2023-07-31T01:30:46;4.13;;;1.13;;
41309;SDS011;27057;51.438;-0.010;2023-07-31T01:33:15;3.50;;;1.13;;
41309;SDS011;27057;51.438;-0.010;2023-07-31T01:35:44;0.85;;;0.70;;
41309;SDS011;27057;51.438;-0.010;2023-07-31T01:38:13;5.32;;;2.85;;
41309;SDS011;27057;51.438;-0.010;2023-07-31T01:40:41;5.40;;;1.27;;
41309;SDS011;27057;51.438;-0.010;2023-07-31T01:43:09;2.83;;;1.10;;
41309;SDS011;27057;51.438;-0.010;2023-07-31T01:45:36;4.00;;;1.40;;
41309;SDS011;27057;51.438;-0.010;2023-07-31T01:48:04;4.00;;;1.65;;
41309;SDS011;27057;51.438;-0.010;2023-07-31T01:50:31;6.88;;;1.70;;
41309;SDS011;27057;51.438;-0.010;2023-07-31T01:52:59;6.68;;;1.60;;
41309;SDS011;27057;51.438;-0.010;2023-07-31T01:55:26;2.35;;;1.10;;
41309;SDS011;27057;51.438;-0.010;2023-07-31T01:57:54;6.75;;;1.33;;
41309;SDS011;27057;51.438;-0.010;2023-07-31T02:00:24;2.83;;;1.20;;
41309;SDS011;27057;51.438;-0.010;2023-07-31T02:02:52;2.20;;;1.38;;
41309;SDS011;27057;51.438;-0.010;2023-07-31T02:05:20;1.92;;;1.48;;
41309;SDS011;27057;51.438;-0.010;2023-07-31T02:07:48;6.68;;;2.00;;
41309;SDS011;27057;51.438;-0.010;2023-07-31T02:10:15;2.17;;;1.05;;
41309;SDS011;27057;51.438;-0.010;2023-07-31T02:12:43;8.48;;;2.25;;
41309;SDS011;27057;51.438;-0.010;2023-07-31T02:15:10;6.43;;;1.58;;
41309;SDS011;27057;51.438;-0.010;2023-07-31T02:17:38;8.85;;;1.80;;
41309;SDS011;27057;51.438;-0.010;2023-07-31T02:20:06;8.40;;;1.75;;
41309;SDS011;27057;51.438;-0.010;2023-07-31T02:22:34;3.33;;;1.30;;
41309;SDS011;27057;51.438;-0.010;2023-07-31T02:25:02;9.88;;;2.40;;
41309;SDS011;27057;51.438;-0.010;2023-07-31T02:27:33;2.13;;;1.38;;
41309;SDS011;27057;51.438;-0.010;2023-07-31T02:30:00;3.97;;;1.58;;
41309;SDS011;27057;51.438;-0.010;2023-07-31T02:32:28;4.38;;;2.00;;
41309;SDS011;27057;51.438;-0.010;2023-07-31T02:34:55;2.65;;;1.02;;
41309;SDS011;27057;51.438;-0.010;2023-07-31T02:37:24;4.95;;;1.20;;
41309;SDS011;27057;51.438;-0.010;2023-07-31T02:39:52;6.68;;;1.63;;
41309;SDS011;27057;51.438;-0.010;2023-07-31T02:42:20;5.07;;;1.50;;
41309;SDS011;27057;51.438;-0.010;2023-07-31T02:44:47;1.17;;;0.73;;
41309;SDS011;27057;51.438;-0.010;2023-07-31T02:47:18;2.35;;;1.60;;
41309;SDS011;27057;51.438;-0.010;2023-07-31T02:49:48;4.07;;;1.45;;
41309;SDS011;27057;51.438;-0.010;2023-07-31T02:52:16;4.05;;;1.63;;
41309;SDS011;27057;51.438;-0.010;2023-07-31T02:54:47;4.95;;;1.38;;
41309;SDS011;27057;51.438;-0.010;2023-07-31T02:57:14;5.32;;;1.38;;
41309;SDS011;27057;51.438;-0.010;2023-07-31T02:59:43;7.20;;;1.40;;
41309;SDS011;27057;51.438;-0.010;2023-07-31T03:02:10;3.92;;;1.83;;
41309;SDS011;27057;51.438;-0.010;2023-07-31T03:04:39;7.75;;;1.27;;
41309;SDS011;27057;51.438;-0.010;2023-07-31T03:07:07;5.65;;;1.50;;
41309;SDS011;27057;51.438;-0.010;2023-07-31T03:09:38;5.22;;;1.48;;
41309;SDS011;27057;51.438;-0.010;2023-07-31T03:12:08;6.38;;;1.05;;
41309;SDS011;27057;51.438;-0.010;2023-07-31T03:14:36;4.30;;;1.77;;
41309;SDS011;27057;51.438;-0.010;2023-07-31T03:17:04;5.13;;;1.40;;
41309;SDS011;27057;51.438;-0.010;2023-07-31T03:19:31;1.35;;;0.73;;
41309;SDS011;27057;51.438;-0.010;2023-07-31T03:21:59;1.60;;;1.00;;
41309;SDS011;27057;51.438;-0.010;2023-07-31T03:24:30;9.25;;;1.60;;
41309;SDS011;27057;51.438;-0.010;2023-07-31T03:26:58;1.95;;;0.95;;
41309;SDS011;27057;51.438;-0.010;2023-07-31T03:29:26;2.17;;;1.10;;
41309;SDS011;27057;51.438;-0.010;2023-07-31T03:31:56;5.88;;;1.10;;
41309;SDS011;27057;51.438;-0.010;2023-07-31T03:34:28;5.78;;;1.30;;
41309;SDS011;27057;51.438;-0.010;2023-07-31T03:36:55;7.72;;;1.50;;
41309;SDS011;27057;51.438;-0.010;2023-07-31T03:39:23;6.28;;;1.55;;
41309;SDS011;27057;51.438;-0.010;2023-07-31T03:41:50;3.33;;;1.00;;
41309;SDS011;27057;51.438;-0.010;2023-07-31T03:44:28;2.45;;;1.20;;
41309;SDS011;27057;51.438;-0.010;2023-07-31T03:46:56;2.65;;;0.90;;
41309;SDS011;27057;51.438;-0.010;2023-07-31T03:49:23;5.82;;;1.48;;
41309;SDS011;27057;51.438;-0.010;2023-07-31T03:51:51;3.10;;;1.60;;
41309;SDS011;27057;51.438;-0.010;2023-07-31T03:54:21;4.38;;;0.80;;
41309;SDS011;27057;51.438;-0.010;2023-07-31T03:56:49;1.30;;;0.98;;
41309;SDS011;27057;51.438;-0.010;2023-07-31T03:59:17;1.65;;;0.65;;
41309;SDS011;27057;51.438;-0.010;2023-07-31T04:01:44;7.38;;;1.65;;
41309;SDS011;27057;51.438;-0.010;2023-07-31T04:04:12;2.60;;;1.00;;
41309;SDS011;27057;51.438;-0.010;2023-07-31T04:06:39;2.20;;;0.80;;
41309;SDS011;27057;51.438;-0.010;2023-07-31T04:09:10;4.13;;;1.10;;
41309;SDS011;27057;51.438;-0.010;2023-07-31T04:11:38;2.17;;;0.73;;
41309;SDS011;27057;51.438;-0.010;2023-07-31T04:14:06;2.15;;;1.00;;
41309;SDS011;27057;51.438;-0.010;2023-07-31T04:16:34;2.90;;;1.00;;
41309;SDS011;27057;51.438;-0.010;2023-07-31T04:19:03;7.25;;;1.17;;
41309;SDS011;27057;51.438;-0.010;2023-07-31T04:21:30;1.75;;;0.80;;
41309;SDS011;27057;51.438;-0.010;2023-07-31T04:23:58;4.55;;;1.20;;
41309;SDS011;27057;51.438;-0.010;2023-07-31T04:26:26;2.67;;;1.05;;
41309;SDS011;27057;51.438;-0.010;2023-07-31T04:28:53;1.80;;;1.00;;
41309;SDS011;27057;51.438;-0.010;2023-07-31T04:31:21;4.53;;;1.27;;
41309;SDS011;27057;51.438;-0.010;2023-07-31T04:33:48;2.17;;;0.95;;
41309;SDS011;27057;51.438;-0.010;2023-07-31T04:36:16;2.15;;;0.73;;
41309;SDS011;27057;51.438;-0.010;2023-07-31T04:38:43;9.48;;;1.33;;
41309;SDS011;27057;51.438;-0.010;2023-07-31T04:41:13;6.15;;;1.35;;
41309;SDS011;27057;51.438;-0.010;2023-07-31T04:43:41;5.25;;;1.20;;
41309;SDS011;27057;51.438;-0.010;2023-07-31T04:46:11;2.13;;;1.10;;
41309;SDS011;27057;51.438;-0.010;2023-07-31T04:48:39;2.13;;;0.90;;
41309;SDS011;27057;51.438;-0.010;2023-07-31T04:51:06;4.18;;;0.88;;
41309;SDS011;27057;51.438;-0.010;2023-07-31T04:53:34;5.57;;;1.20;;
41309;SDS011;27057;51.438;-0.010;2023-07-31T04:56:02;3.35;;;0.90;;
41309;SDS011;27057;51.438;-0.010;2023-07-31T04:58:30;3.40;;;1.25;;
41309;SDS011;27057;51.438;-0.010;2023-07-31T05:00:57;2.58;;;0.80;;
41309;SDS011;27057;51.438;-0.010;2023-07-31T05:03:25;2.22;;;1.08;;
41309;SDS011;27057;51.438;-0.010;2023-07-31T05:05:53;3.63;;;1.00;;
41309;SDS011;27057;51.438;-0.010;2023-07-31T05:08:20;2.35;;;1.20;;
41309;SDS011;27057;51.438;-0.010;2023-07-31T05:10:48;5.65;;;1.23;;
41309;SDS011;27057;51.438;-0.010;2023-07-31T05:13:18;4.15;;;1.15;;
41309;SDS011;27057;51.438;-0.010;2023-07-31T05:15:45;1.88;;;0.85;;
41309;SDS011;27057;51.438;-0.010;2023-07-31T05:18:13;1.67;;;1.00;;
41309;SDS011;27057;51.438;-0.010;2023-07-31T05:20:40;4.57;;;1.38;;
41309;SDS011;27057;51.438;-0.010;2023-07-31T05:23:08;4.72;;;1.00;;
41309;SDS011;27057;51.438;-0.010;2023-07-31T05:25:36;2.47;;;0.80;;
41309;SDS011;27057;51.438;-0.010;2023-07-31T05:28:06;3.97;;;1.13;;
41309;SDS011;27057;51.438;-0.010;2023-07-31T05:30:34;4.45;;;1.35;;
41309;SDS011;27057;51.438;-0.010;2023-07-31T05:33:02;1.75;;;0.60;;
41309;SDS011;27057;51.438;-0.010;2023-07-31T05:35:41;5.43;;;1.30;;
41309;SDS011;27057;51.438;-0.010;2023-07-31T05:38:08;3.75;;;1.48;;
41309;SDS011;27057;51.438;-0.010;2023-07-31T05:40:39;1.95;;;1.00;;
41309;SDS011;27057;51.438;-0.010;2023-07-31T05:43:06;7.25;;;1.45;;
41309;SDS011;27057;51.438;-0.010;2023-07-31T05:45:35;4.03;;;1.35;;
41309;SDS011;27057;51.438;-0.010;2023-07-31T05:48:03;4.25;;;1.25;;
41309;SDS011;27057;51.438;-0.010;2023-07-31T05:50:31;2.92;;;1.13;;
41309;SDS011;27057;51.438;-0.010;2023-07-31T05:52:59;5.15;;;1.30;;
41309;SDS011;27057;51.438;-0.010;2023-07-31T05:55:26;3.28;;;1.05;;
41309;SDS011;27057;51.438;-0.010;2023-07-31T05:57:54;2.17;;;0.90;;
41309;SDS011;27057;51.438;-0.010;2023-07-31T06:00:22;6.97;;;1.10;;
41309;SDS011;27057;51.438;-0.010;2023-07-31T06:02:49;7.32;;;1.23;;
41309;SDS011;27057;51.438;-0.010;2023-07-31T06:05:17;5.78;;;1.70;;
41309;SDS011;27057;51.438;-0.010;2023-07-31T06:07:45;7.78;;;1.50;;
41309;SDS011;27057;51.438;-0.010;2023-07-31T06:10:12;4.07;;;1.42;;
41309;SDS011;27057;51.438;-0.010;2023-07-31T06:12:49;2.00;;;1.30;;
41309;SDS011;27057;51.438;-0.010;2023-07-31T06:15:16;4.18;;;1.13;;
41309;SDS011;27057;51.438;-0.010;2023-07-31T06:17:46;3.70;;;1.58;;
41309;SDS011;27057;51.438;-0.010;2023-07-31T06:20:13;4.03;;;1.02;;
41309;SDS011;27057;51.438;-0.010;2023-07-31T06:22:47;3.42;;;1.65;;
41309;SDS011;27057;51.438;-0.010;2023-07-31T06:25:14;4.80;;;1.65;;
41309;SDS011;27057;51.438;-0.010;2023-07-31T06:27:42;5.15;;;1.42;;
41309;SDS011;27057;51.438;-0.010;2023-07-31T06:30:09;4.57;;;1.40;;
41309;SDS011;27057;51.438;-0.010;2023-07-31T06:32:37;5.90;;;1.42;;
41309;SDS011;27057;51.438;-0.010;2023-07-31T06:35:05;2.97;;;1.35;;
41309;SDS011;27057;51.438;-0.010;2023-07-31T06:37:33;4.53;;;1.80;;
41309;SDS011;27057;51.438;-0.010;2023-07-31T06:40:03;7.78;;;1.48;;
41309;SDS011;27057;51.438;-0.010;2023-07-31T06:42:32;5.78;;;1.35;;
41309;SDS011;27057;51.438;-0.010;2023-07-31T06:45:00;4.85;;;1.02;;
41309;SDS011;27057;51.438;-0.010;2023-07-31T06:47:28;6.75;;;1.17;;
41309;SDS011;27057;51.438;-0.010;2023-07-31T06:49:55;6.10;;;1.80;;
41309;SDS011;27057;51.438;-0.010;2023-07-31T06:52:25;8.93;;;1.88;;
41309;SDS011;27057;51.438;-0.010;2023-07-31T06:57:47;9.35;;;1.80;;
41309;SDS011;27057;51.438;-0.010;2023-07-31T07:00:19;6.85;;;1.92;;
41309;SDS011;27057;51.438;-0.010;2023-07-31T07:02:48;9.00;;;1.70;;
41309;SDS011;27057;51.438;-0.010;2023-07-31T07:05:16;5.82;;;1.10;;
41309;SDS011;27057;51.438;-0.010;2023-07-31T07:07:45;5.65;;;1.52;;
41309;SDS011;27057;51.438;-0.010;2023-07-31T07:10:12;7.65;;;1.60;;
41309;SDS011;27057;51.438;-0.010;2023-07-31T07:12:40;5.95;;;1.30;;
41309;SDS011;27057;51.438;-0.010;2023-07-31T07:15:07;4.22;;;1.40;;
41309;SDS011;27057;51.438;-0.010;2023-07-31T07:17:35;3.38;;;1.27;;
41309;SDS011;27057;51.438;-0.010;2023-07-31T07:20:03;12.32;;;1.60;;
41309;SDS011;27057;51.438;-0.010;2023-07-31T07:22:31;3.63;;;1.30;;
41309;SDS011;27057;51.438;-0.010;2023-07-31T07:24:59;3.58;;;1.27;;
41309;SDS011;27057;51.438;-0.010;2023-07-31T07:27:26;5.45;;;1.25;;
41309;SDS011;27057;51.438;-0.010;2023-07-31T07:29:54;14.30;;;1.52;;
41309;SDS011;27057;51.438;-0.010;2023-07-31T07:32:21;4.57;;;1.13;;
41309;SDS011;27057;51.438;-0.010;2023-07-31T07:34:49;6.07;;;1.50;;
41309;SDS011;27057;51.438;-0.010;2023-07-31T07:37:16;2.70;;;1.10;;
41309;SDS011;27057;51.438;-0.010;2023-07-31T07:39:44;4.63;;;1.08;;
41309;SDS011;27057;51.438;-0.010;2023-07-31T07:42:11;8.88;;;1.27;;
41309;SDS011;27057;51.438;-0.010;2023-07-31T07:44:39;6.35;;;1.10;;
41309;SDS011;27057;51.438;-0.010;2023-07-31T07:47:06;5.53;;;0.93;;
41309;SDS011;27057;51.438;-0.010;2023-07-31T07:49:34;4.00;;;1.20;;
41309;SDS011;27057;51.438;-0.010;2023-07-31T07:52:02;3.30;;;1.25;;
41309;SDS011;27057;51.438;-0.010;2023-07-31T07:54:30;2.08;;;0.95;;
41309;SDS011;27057;51.438;-0.010;2023-07-31T07:56:59;4.20;;;1.33;;
41309;SDS011;27057;51.438;-0.010;2023-07-31T07:59:27;5.97;;;1.60;;
41309;SDS011;27057;51.438;-0.010;2023-07-31T08:01:54;6.90;;;1.45;;
41309;SDS011;27057;51.438;-0.010;2023-07-31T08:04:21;5.97;;;1.25;;
41309;SDS011;27057;51.438;-0.010;2023-07-31T08:06:49;2.65;;;1.17;;
41309;SDS011;27057;51.438;-0.010;2023-07-31T08:09:16;8.43;;;1.30;;
41309;SDS011;27057;51.438;-0.010;2023-07-31T08:11:44;8.68;;;1.63;;
41309;SDS011;27057;51.438;-0.010;2023-07-31T08:14:11;7.38;;;1.38;;
41309;SDS011;27057;51.438;-0.010;2023-07-31T08:16:38;10.57;;;1.20;;
41309;SDS011;27057;51.438;-0.010;2023-07-31T08:19:06;3.65;;;1.23;;
41309;SDS011;27057;51.438;-0.010;2023-07-31T08:21:34;1.15;;;0.77;;
41309;SDS011;27057;51.438;-0.010;2023-07-31T08:24:01;6.80;;;1.20;;
41309;SDS011;27057;51.438;-0.010;2023-07-31T08:26:29;9.30;;;1.08;;
41309;SDS011;27057;51.438;-0.010;2023-07-31T08:28:56;6.13;;;0.95;;
41309;SDS011;27057;51.438;-0.010;2023-07-31T08:31:24;6.55;;;1.52;;
41309;SDS011;27057;51.438;-0.010;2023-07-31T08:33:52;4.80;;;1.27;;
41309;SDS011;27057;51.438;-0.010;2023-07-31T08:36:19;6.47;;;1.33;;
41309;SDS011;27057;51.438;-0.010;2023-07-31T08:38:47;7.43;;;1.60;;
41309;SDS011;27057;51.438;-0.010;2023-07-31T08:41:14;3.45;;;1.52;;
41309;SDS011;27057;51.438;-0.010;2023-07-31T08:43:45;4.10;;;1.45;;
41309;SDS011;27057;51.438;-0.010;2023-07-31T08:46:13;3.85;;;1.30;;
41309;SDS011;27057;51.438;-0.010;2023-07-31T08:48:44;7.00;;;1.42;;
41309;SDS011;27057;51.438;-0.010;2023-07-31T08:51:13;3.30;;;1.35;;
41309;SDS011;27057;51.438;-0.010;2023-07-31T08:53:41;5.88;;;1.42;;
41309;SDS011;27057;51.438;-0.010;2023-07-31T08:56:08;7.15;;;1.38;;
41309;SDS011;27057;51.438;-0.010;2023-07-31T08:58:38;2.38;;;0.90;;
41309;SDS011;27057;51.438;-0.010;2023-07-31T09:01:06;9.60;;;1.52;;
41309;SDS011;27057;51.438;-0.010;2023-07-31T09:03:34;4.78;;;1.50;;
41309;SDS011;27057;51.438;-0.010;2023-07-31T09:06:03;2.80;;;1.42;;
41309;SDS011;27057;51.438;-0.010;2023-07-31T09:08:33;7.07;;;1.20;;
41309;SDS011;27057;51.438;-0.010;2023-07-31T09:11:01;4.65;;;1.15;;
41309;SDS011;27057;51.438;-0.010;2023-07-31T09:13:32;4.03;;;1.27;;
41309;SDS011;27057;51.438;-0.010;2023-07-31T09:16:00;2.85;;;1.55;;
41309;SDS011;27057;51.438;-0.010;2023-07-31T09:18:27;4.32;;;1.20;;
41309;SDS011;27057;51.438;-0.010;2023-07-31T09:21:04;7.15;;;1.50;;
41309;SDS011;27057;51.438;-0.010;2023-07-31T09:23:42;1.98;;;1.00;;
41309;SDS011;27057;51.438;-0.010;2023-07-31T09:26:11;3.60;;;1.40;;
41309;SDS011;27057;51.438;-0.010;2023-07-31T09:28:55;2.08;;;0.93;;
41309;SDS011;27057;51.438;-0.010;2023-07-31T09:31:32;1.98;;;1.10;;
41309;SDS011;27057;51.438;-0.010;2023-07-31T09:34:08;2.10;;;1.08;;
41309;SDS011;27057;51.438;-0.010;2023-07-31T09:39:13;3.63;;;1.10;;
41309;SDS011;27057;51.438;-0.010;2023-07-31T09:41:47;2.90;;;1.00;;
41309;SDS011;27057;51.438;-0.010;2023-07-31T09:44:39;2.33;;;1.13;;
41309;SDS011;27057;51.438;-0.010;2023-07-31T09:47:21;1.42;;;1.23;;
41309;SDS011;27057;51.438;-0.010;2023-07-31T09:49:52;5.55;;;1.00;;
41309;SDS011;27057;51.438;-0.010;2023-07-31T09:52:19;5.05;;;1.00;;
41309;SDS011;27057;51.438;-0.010;2023-07-31T09:54:47;6.43;;;1.00;;
41309;SDS011;27057;51.438;-0.010;2023-07-31T09:57:15;0.73;;;0.60;;
41309;SDS011;27057;51.438;-0.010;2023-07-31T09:59:45;2.35;;;1.15;;
41309;SDS011;27057;51.438;-0.010;2023-07-31T10:02:14;3.70;;;0.90;;
41309;SDS011;27057;51.438;-0.010;2023-07-31T10:04:49;2.17;;;1.00;;
41309;SDS011;27057;51.438;-0.010;2023-07-31T10:07:17;1.58;;;0.75;;
41309;SDS011;27057;51.438;-0.010;2023-07-31T10:09:47;1.63;;;0.85;;
41309;SDS011;27057;51.438;-0.010;2023-07-31T10:12:15;2.80;;;0.88;;
41309;SDS011;27057;51.438;-0.010;2023-07-31T10:14:46;0.35;;;0.32;;
41309;SDS011;27057;51.438;-0.010;2023-07-31T10:17:13;3.78;;;0.90;;
41309;SDS011;27057;51.438;-0.010;2023-07-31T10:19:41;2.53;;;1.10;;
41309;SDS011;27057;51.438;-0.010;2023-07-31T10:22:09;4.70;;;1.48;;
41309;SDS011;27057;51.438;-0.010;2023-07-31T10:24:39;3.13;;;1.20;;
41309;SDS011;27057;51.438;-0.010;2023-07-31T10:27:09;1.35;;;0.77;;
41309;SDS011;27057;51.438;-0.010;2023-07-31T10:29:37;1.08;;;0.80;;
41309;SDS011;27057;51.438;-0.010;2023-07-31T10:32:07;2.72;;;0.90;;
41309;SDS011;27057;51.438;-0.010;2023-07-31T10:34:38;5.80;;;1.25;;
41309;SDS011;27057;51.438;-0.010;2023-07-31T10:37:19;1.65;;;0.82;;
41309;SDS011;27057;51.438;-0.010;2023-07-31T10:40:07;3.85;;;1.45;;
41309;SDS011;27057;51.438;-0.010;2023-07-31T10:42:46;6.20;;;1.30;;
41309;SDS011;27057;51.438;-0.010;2023-07-31T10:45:25;4.80;;;1.40;;
41309;SDS011;27057;51.438;-0.010;2023-07-31T10:48:07;3.17;;;1.15;;
41309;SDS011;27057;51.438;-0.010;2023-07-31T10:50:47;5.32;;;0.98;;
41309;SDS011;27057;51.438;-0.010;2023-07-31T10:53:26;2.38;;;1.40;;
41309;SDS011;27057;51.438;-0.010;2023-07-31T10:55:57;3.88;;;1.25;;
41309;SDS011;27057;51.438;-0.010;2023-07-31T10:58:26;2.10;;;1.10;;
41309;SDS011;27057;51.438;-0.010;2023-07-31T11:00:57;8.80;;;2.15;;
41309;SDS011;27057;51.438;-0.010;2023-07-31T11:03:26;3.42;;;1.23;;
41309;SDS011;27057;51.438;-0.010;2023-07-31T11:06:07;5.85;;;1.63;;
41309;SDS011;27057;51.438;-0.010;2023-07-31T11:08:36;2.47;;;0.85;;
41309;SDS011;27057;51.438;-0.010;2023-07-31T11:11:12;3.87;;;1.40;;
41309;SDS011;27057;51.438;-0.010;2023-07-31T11:13:45;3.22;;;1.25;;
41309;SDS011;27057;51.438;-0.010;2023-07-31T11:16:18;3.53;;;1.77;;
41309;SDS011;27057;51.438;-0.010;2023-07-31T11:18:47;2.25;;;1.00;;
41309;SDS011;27057;51.438;-0.010;2023-07-31T11:21:17;3.33;;;1.23;;
41309;SDS011;27057;51.438;-0.010;2023-07-31T11:23:47;4.70;;;1.10;;
41309;SDS011;27057;51.438;-0.010;2023-07-31T11:26:16;4.70;;;1.42;;
41309;SDS011;27057;51.438;-0.010;2023-07-31T11:28:48;6.22;;;1.42;;
41309;SDS011;27057;51.438;-0.010;2023-07-31T11:31:16;2.97;;;1.20;;
41309;SDS011;27057;51.438;-0.010;2023-07-31T11:33:44;4.32;;;1.15;;
41309;SDS011;27057;51.438;-0.010;2023-07-31T11:36:19;6.32;;;1.50;;
41309;SDS011;27057;51.438;-0.010;2023-07-31T11:38:47;2.10;;;1.52;;
41309;SDS011;27057;51.438;-0.010;2023-07-31T11:41:15;7.45;;;1.70;;
41309;SDS011;27057;51.438;-0.010;2023-07-31T11:43:45;5.88;;;2.30;;
41309;SDS011;27057;51.438;-0.010;2023-07-31T11:46:14;7.85;;;2.50;;
41309;SDS011;27057;51.438;-0.010;2023-07-31T11:48:42;9.23;;;2.70;;
41309;SDS011;27057;51.438;-0.010;2023-07-31T11:51:10;8.32;;;2.67;;
41309;SDS011;27057;51.438;-0.010;2023-07-31T11:56:39;7.60;;;2.60;;
41309;SDS011;27057;51.438;-0.010;2023-07-31T11:59:07;7.70;;;2.83;;
41309;SDS011;27057;51.438;-0.010;2023-07-31T12:01:35;7.80;;;2.13;;
41309;SDS011;27057;51.438;-0.010;2023-07-31T12:04:03;8.20;;;2.72;;
41309;SDS011;27057;51.438;-0.010;2023-07-31T12:06:34;9.57;;;2.30;;
41309;SDS011;27057;51.438;-0.010;2023-07-31T12:09:03;12.45;;;2.78;;
41309;SDS011;27057;51.438;-0.010;2023-07-31T12:11:31;8.10;;;2.72;;
41309;SDS011;27057;51.438;-0.010;2023-07-31T12:14:24;7.57;;;2.50;;
41309;SDS011;27057;51.438;-0.010;2023-07-31T12:16:53;6.15;;;2.58;;
41309;SDS011;27057;51.438;-0.010;2023-07-31T12:19:23;6.93;;;1.73;;
41309;SDS011;27057;51.438;-0.010;2023-07-31T12:21:55;3.67;;;1.58;;
41309;SDS011;27057;51.438;-0.010;2023-07-31T12:24:43;7.15;;;2.22;;
41309;SDS011;27057;51.438;-0.010;2023-07-31T12:27:13;7.40;;;2.03;;
41309;SDS011;27057;51.438;-0.010;2023-07-31T12:29:42;4.78;;;2.33;;
41309;SDS011;27057;51.438;-0.010;2023-07-31T12:32:22;5.13;;;1.55;;
41309;SDS011;27057;51.438;-0.010;2023-07-31T12:34:52;19.38;;;3.40;;
41309;SDS011;27057;51.438;-0.010;2023-07-31T12:37:20;4.95;;;2.35;;
41309;SDS011;27057;51.438;-0.010;2023-07-31T12:39:48;3.40;;;1.75;;
41309;SDS011;27057;51.438;-0.010;2023-07-31T12:42:17;5.90;;;2.20;;
41309;SDS011;27057;51.438;-0.010;2023-07-31T12:44:45;8.35;;;2.50;;
41309;SDS011;27057;51.438;-0.010;2023-07-31T12:47:12;11.85;;;2.95;;
41309;SDS011;27057;51.438;-0.010;2023-07-31T12:49:42;7.10;;;1.98;;
41309;SDS011;27057;51.438;-0.010;2023-07-31T12:52:09;7.15;;;1.98;;
41309;SDS011;27057;51.438;-0.010;2023-07-31T12:54:36;6.75;;;2.20;;
41309;SDS011;27057;51.438;-0.010;2023-07-31T12:57:04;10.18;;;2.45;;
41309;SDS011;27057;51.438;-0.010;2023-07-31T12:59:31;8.15;;;2.47;;
41309;SDS011;27057;51.438;-0.010;2023-07-31T13:01:58;11.80;;;3.83;;
41309;SDS011;27057;51.438;-0.010;2023-07-31T13:04:26;7.70;;;2.53;;
41309;SDS011;27057;51.438;-0.010;2023-07-31T13:06:53;7.88;;;2.38;;
41309;SDS011;27057;51.438;-0.010;2023-07-31T13:09:25;12.35;;;2.38;;
41309;SDS011;27057;51.438;-0.010;2023-07-31T13:11:52;8.15;;;3.55;;
41309;SDS011;27057;51.438;-0.010;2023-07-31T13:14:20;12.98;;;3.38;;
41309;SDS011;27057;51.438;-0.010;2023-07-31T13:16:52;8.40;;;3.53;;
41309;SDS011;27057;51.438;-0.010;2023-07-31T13:19:21;9.98;;;3.45;;
41309;SDS011;27057;51.438;-0.010;2023-07-31T13:21:49;15.75;;;3.38;;
41309;SDS011;27057;51.438;-0.010;2023-07-31T13:24:16;14.45;;;3.22;;
41309;SDS011;27057;51.438;-0.010;2023-07-31T13:26:49;15.13;;;3.75;;
41309;SDS011;27057;51.438;-0.010;2023-07-31T13:29:17;11.80;;;4.38;;
41309;SDS011;27057;51.438;-0.010;2023-07-31T13:31:47;11.82;;;4.00;;
41309;SDS011;27057;51.438;-0.010;2023-07-31T13:34:15;12.45;;;3.78;;
41309;SDS011;27057;51.438;-0.010;2023-07-31T13:36:43;17.63;;;4.88;;
41309;SDS011;27057;51.438;-0.010;2023-07-31T13:39:10;7.38;;;4.18;;
41309;SDS011;27057;51.438;-0.010;2023-07-31T13:41:38;23.52;;;6.10;;
41309;SDS011;27057;51.438;-0.010;2023-07-31T13:44:06;8.20;;;3.53;;
41309;SDS011;27057;51.438;-0.010;2023-07-31T13:46:34;19.05;;;4.43;;
41309;SDS011;27057;51.438;-0.010;2023-07-31T13:49:02;17.92;;;4.25;;
41309;SDS011;27057;51.438;-0.010;2023-07-31T13:51:29;21.02;;;4.68;;
41309;SDS011;27057;51.438;-0.010;2023-07-31T13:53:57;13.32;;;4.30;;
41309;SDS011;27057;51.438;-0.010;2023-07-31T13:56:24;10.85;;;3.80;;
41309;SDS011;27057;51.438;-0.010;2023-07-31T13:58:56;10.38;;;3.45;;
41309;SDS011;27057;51.438;-0.010;2023-07-31T14:01:23;8.13;;;3.33;;
41309;SDS011;27057;51.438;-0.010;2023-07-31T14:03:53;22.60;;;4.63;;
41309;SDS011;27057;51.438;-0.010;2023-07-31T14:06:24;26.23;;;4.72;;
41309;SDS011;27057;51.438;-0.010;2023-07-31T14:08:54;13.43;;;4.93;;
41309;SDS011;27057;51.438;-0.010;2023-07-31T14:11:23;16.50;;;4.93;;
41309;SDS011;27057;51.438;-0.010;2023-07-31T14:13:51;17.23;;;5.65;;
41309;SDS011;27057;51.438;-0.010;2023-07-31T14:16:18;20.50;;;5.40;;
41309;SDS011;27057;51.438;-0.010;2023-07-31T14:18:46;12.95;;;4.53;;
41309;SDS011;27057;51.438;-0.010;2023-07-31T14:21:17;13.95;;;5.05;;
41309;SDS011;27057;51.438;-0.010;2023-07-31T14:23:46;13.95;;;4.82;;
41309;SDS011;27057;51.438;-0.010;2023-07-31T14:26:17;19.08;;;5.85;;
41309;SDS011;27057;51.438;-0.010;2023-07-31T14:28:44;18.38;;;5.13;;
41309;SDS011;27057;51.438;-0.010;2023-07-31T14:31:12;14.80;;;3.55;;
41309;SDS011;27057;51.438;-0.010;2023-07-31T14:33:39;21.23;;;4.75;;
41309;SDS011;27057;51.438;-0.010;2023-07-31T14:36:07;10.10;;;2.97;;
41309;SDS011;27057;51.438;-0.010;2023-07-31T14:38:35;23.50;;;6.55;;
41309;SDS011;27057;51.438;-0.010;2023-07-31T14:41:05;17.10;;;4.43;;
41309;SDS011;27057;51.438;-0.010;2023-07-31T14:43:33;20.50;;;5.38;;
41309;SDS011;27057;51.438;-0.010;2023-07-31T14:46:00;16.80;;;5.03;;
41309;SDS011;27057;51.438;-0.010;2023-07-31T14:48:28;14.60;;;4.65;;
41309;SDS011;27057;51.438;-0.010;2023-07-31T14:50:56;16.35;;;4.53;;
41309;SDS011;27057;51.438;-0.010;2023-07-31T14:53:23;15.15;;;5.97;;
41309;SDS011;27057;51.438;-0.010;2023-07-31T14:55:51;13.43;;;3.05;;
41309;SDS011;27057;51.438;-0.010;2023-07-31T14:58:19;16.55;;;5.28;;
41309;SDS011;27057;51.438;-0.010;2023-07-31T15:00:46;18.35;;;5.57;;